Time;durP1;ratioP1;P1;durP2;ratioP2;P2;SDS_P1;SDS_P2;PMS_P1;PMS_P2;Temp;Humidity;BMP_temperature;BMP_pressure;BME280_temperature;BME280_humidity;BME280_pressure;Samples;Min_cycle;Max_cycle;Signal;HPM_P1;HPM_P2
2022/03/26 00:00:44;;;;;;;37.45;18.10;;;;;;;11.85;47.87;103038.69;6277928;22;20083;-62
2022/03/26 00:03:10;;;;;;;33.22;18.63;;;;;;;11.81;47.71;103033.16;6277539;22;20121;-63
2022/03/26 00:05:37;;;;;;;36.10;19.02;;;;;;;11.87;47.55;103046.72;6250645;22;20034;-63
2022/03/26 00:08:03;;;;;;;34.40;18.40;;;;;;;11.94;47.31;103040.78;6277737;22;20008;-63
2022/03/26 00:10:28;;;;;;;35.03;18.42;;;;;;;11.98;47.52;103042.72;6277726;22;20451;-64
2022/03/26 00:12:56;;;;;;;37.70;18.77;;;;;;;11.97;47.08;103044.47;6277588;22;20456;-64
2022/03/26 00:15:22;;;;;;;38.03;19.15;;;;;;;11.94;47.42;103036.41;6277607;22;20000;-63
2022/03/26 00:17:48;;;;;;;42.15;20.60;;;;;;;11.91;47.92;103033.66;6278152;22;20011;-63
2022/03/26 00:20:13;;;;;;;38.55;19.15;;;;;;;11.92;47.48;103038.09;6278543;22;20007;-63
2022/03/26 00:22:44;;;;;;;37.88;19.63;;;;;;;11.82;47.81;103032.31;6279317;22;20008;-62
2022/03/26 00:25:10;;;;;;;37.22;18.58;;;;;;;11.89;47.63;103030.00;6278040;22;20496;-62
2022/03/26 00:27:36;;;;;;;35.75;18.63;;;;;;;11.87;47.28;103026.41;6277379;22;19999;-63
2022/03/26 00:30:05;;;;;;;37.35;18.15;;;;;;;11.90;47.41;103029.16;6277532;22;20058;-62
2022/03/26 00:32:31;;;;;;;38.08;18.63;;;;;;;11.86;47.63;103028.97;6277509;22;20324;-62
2022/03/26 00:34:57;;;;;;;36.25;18.67;;;;;;;11.86;47.63;103029.91;6277625;22;20456;-63
2022/03/26 00:37:23;;;;;;;33.58;18.52;;;;;;;11.84;47.30;103026.28;6277029;22;20039;-62
2022/03/26 00:39:48;;;;;;;32.83;18.60;;;;;;;11.81;47.46;103027.88;6277449;22;20011;-62
2022/03/26 00:42:15;;;;;;;34.35;18.48;;;;;;;11.78;47.58;103033.97;6277736;22;20004;-62
2022/03/26 00:44:40;;;;;;;36.38;19.00;;;;;;;11.73;47.58;103035.50;6277595;22;20000;-63
2022/03/26 00:47:06;;;;;;;35.38;17.27;;;;;;;11.67;47.92;103030.84;6277456;22;20012;-63
2022/03/26 00:49:32;;;;;;;36.00;18.55;;;;;;;11.64;47.97;103040.41;6277365;22;19999;-62
2022/03/26 00:52:00;;;;;;;32.60;16.77;;;;;;;11.65;47.84;103043.16;6277340;22;20007;-62
2022/03/26 00:54:25;;;;;;;37.13;17.45;;;;;;;11.60;48.25;103035.81;6277269;22;20012;-63
2022/03/26 00:56:51;;;;;;;32.15;18.02;;;;;;;11.54;48.44;103031.19;6249123;22;20019;-62
2022/03/26 00:59:17;;;;;;;32.33;17.67;;;;;;;11.52;48.59;103038.19;6277147;22;20082;-63
2022/03/26 01:01:43;;;;;;;37.38;19.48;;;;;;;11.50;48.48;103037.19;6277154;22;20425;-62
2022/03/26 01:04:09;;;;;;;39.00;18.95;;;;;;;11.46;48.25;103029.97;6277208;22;20038;-62
2022/03/26 01:06:34;;;;;;;36.50;18.25;;;;;;;11.38;48.53;103021.69;6277375;22;20030;-63
2022/03/26 01:09:00;;;;;;;32.90;18.45;;;;;;;11.30;48.51;103020.47;6277102;22;20000;-62
2022/03/26 01:11:26;;;;;;;35.72;18.25;;;;;;;11.26;49.21;103022.09;6277355;22;20057;-62
2022/03/26 01:13:56;;;;;;;31.50;17.63;;;;;;;11.21;48.91;103025.34;6277359;22;20010;-62
2022/03/26 01:16:25;;;;;;;30.63;17.65;;;;;;;11.04;49.73;103019.34;6277034;22;20029;-62
2022/03/26 01:18:52;;;;;;;32.92;17.42;;;;;;;10.96;49.84;103013.72;6277416;22;20004;-62
2022/03/26 01:21:19;;;;;;;31.08;17.75;;;;;;;10.88;50.18;103020.44;6277301;22;20003;-62
2022/03/26 01:23:46;;;;;;;33.65;17.88;;;;;;;10.88;50.28;103016.88;6277024;22;20078;-63
2022/03/26 01:26:13;;;;;;;31.33;16.92;;;;;;;10.92;49.69;103016.16;6276986;22;20004;-62
2022/03/26 01:28:39;;;;;;;33.75;17.98;;;;;;;10.82;49.94;103020.13;6276929;22;20003;-63
2022/03/26 01:31:05;;;;;;;32.55;17.27;;;;;;;10.82;49.99;103021.88;6276981;22;20014;-62
2022/03/26 01:33:30;;;;;;;36.25;17.98;;;;;;;10.77;50.12;103022.56;6277286;22;20057;-62
2022/03/26 01:35:56;;;;;;;40.50;18.10;;;;;;;10.78;49.96;103034.06;6276816;22;20468;-62
2022/03/26 01:38:23;;;;;;;31.27;17.00;;;;;;;10.71;50.19;103032.00;6277264;22;20421;-62
2022/03/26 01:40:49;;;;;;;30.65;17.85;;;;;;;10.64;50.44;103035.19;6277182;22;20021;-62
2022/03/26 01:43:15;;;;;;;34.00;17.38;;;;;;;10.62;50.37;103031.53;6276672;22;20000;-63
2022/03/26 01:45:40;;;;;;;35.72;17.83;;;;;;;10.52;50.99;103039.06;6276792;22;20079;-63
2022/03/26 01:48:06;;;;;;;28.67;17.85;;;;;;;10.43;51.15;103041.28;6277174;22;20079;-62
2022/03/26 01:50:32;;;;;;;33.38;17.42;;;;;;;10.35;51.57;103036.47;6277002;22;20035;-62
2022/03/26 01:52:58;;;;;;;33.45;17.45;;;;;;;10.24;51.84;103038.59;6276865;22;20004;-62
2022/03/26 01:55:25;;;;;;;30.40;17.30;;;;;;;10.08;52.38;103039.59;6276566;22;20337;-62
2022/03/26 01:57:51;;;;;;;28.98;16.60;;;;;;;10.08;52.55;103038.69;6276141;22;20073;-63
2022/03/26 02:00:17;;;;;;;32.70;17.15;;;;;;;10.08;52.09;103044.88;6276836;22;20376;-62
2022/03/26 02:02:43;;;;;;;29.27;16.15;;;;;;;10.12;51.87;103040.66;6276593;22;20106;-62
2022/03/26 02:05:11;;;;;;;32.08;16.85;;;;;;;10.16;51.64;103027.66;6276571;22;20071;-62
2022/03/26 02:07:40;;;;;;;32.92;16.73;;;;;;;10.17;51.78;103040.03;6276631;22;20008;-62
2022/03/26 02:10:14;;;;;;;32.15;16.48;;;;;;;10.16;51.84;103032.94;6276664;22;20380;-62
2022/03/26 02:12:42;;;;;;;30.50;15.85;;;;;;;10.17;51.73;103037.38;6276415;22;20446;-62
2022/03/26 02:15:09;;;;;;;36.70;16.50;;;;;;;10.15;51.97;103044.34;6276620;22;20034;-62
2022/03/26 02:17:36;;;;;;;34.90;15.95;;;;;;;10.13;52.18;103038.06;6276311;22;20307;-62
2022/03/26 02:20:05;;;;;;;31.75;15.43;;;;;;;10.15;52.10;103025.84;6249413;22;20060;-62
2022/03/26 02:22:31;;;;;;;30.60;16.55;;;;;;;10.16;52.13;103027.66;6276547;22;20341;-62
2022/03/26 02:25:00;;;;;;;31.15;16.25;;;;;;;10.14;52.38;103031.94;6276897;22;20004;-62
2022/03/26 02:27:27;;;;;;;35.17;17.10;;;;;;;10.02;52.75;103034.94;6276306;22;20049;-62
2022/03/26 02:29:53;;;;;;;28.17;15.80;;;;;;;10.13;52.32;103034.53;6276496;22;20082;-62
2022/03/26 02:32:20;;;;;;;31.58;16.35;;;;;;;9.96;52.14;103013.47;6275732;22;20003;-62
2022/03/26 02:34:48;;;;;;;42.42;17.33;;;;;;;10.02;52.41;103031.34;6276777;22;20004;-62
2022/03/26 02:37:16;;;;;;;29.42;16.13;;;;;;;10.06;52.19;103029.78;6277169;22;20007;-62
2022/03/26 02:39:44;;;;;;;30.27;15.80;;;;;;;10.11;52.24;103034.47;6277179;22;20003;-61
2022/03/26 02:42:10;;;;;;;37.17;16.92;;;;;;;9.98;52.84;103025.03;6276620;22;20009;-62
2022/03/26 02:44:35;;;;;;;31.08;16.25;;;;;;;10.01;52.06;103026.91;6276647;22;20484;-62
2022/03/26 02:47:01;;;;;;;31.15;16.45;;;;;;;9.99;52.56;103033.88;6276801;22;20087;-62
2022/03/26 02:49:26;;;;;;;36.50;15.90;;;;;;;9.97;52.60;103027.59;6277974;22;20320;-62
2022/03/26 02:51:52;;;;;;;32.22;16.13;;;;;;;9.95;52.03;103024.88;6278494;22;20360;-62
2022/03/26 02:54:20;;;;;;;30.73;16.42;;;;;;;9.95;52.46;103031.91;6278594;22;20000;-62
2022/03/26 02:56:50;;;;;;;34.60;17.02;;;;;;;9.89;52.57;103029.88;6277912;22;20047;-62
2022/03/26 02:59:17;;;;;;;32.58;16.58;;;;;;;9.85;52.88;103027.94;6278675;22;20039;-62
2022/03/26 03:01:44;;;;;;;35.15;17.55;;;;;;;9.80;53.02;103018.84;6251272;22;20053;-62
2022/03/26 03:04:09;;;;;;;28.65;15.60;;;;;;;9.84;53.44;103033.13;6278365;22;20145;-62
2022/03/26 03:06:35;;;;;;;30.45;15.68;;;;;;;9.77;52.52;103026.66;6278570;22;20440;-62
2022/03/26 03:09:05;;;;;;;25.60;15.25;;;;;;;9.68;52.76;103035.03;6278443;22;20061;-62
2022/03/26 03:11:33;;;;;;;27.55;15.15;;;;;;;9.50;53.02;103027.06;6278181;22;20003;-62
2022/03/26 03:13:58;;;;;;;31.95;15.85;;;;;;;9.36;53.71;103028.09;6278279;22;20011;-62
2022/03/26 03:16:24;;;;;;;29.35;15.05;;;;;;;9.32;54.08;103031.41;6278158;22;20302;-62
2022/03/26 03:18:50;;;;;;;25.60;14.82;;;;;;;9.25;54.12;103035.50;6278587;22;20006;-62
2022/03/26 03:21:15;;;;;;;29.80;14.98;;;;;;;9.21;54.63;103033.53;6278136;22;20413;-61
2022/03/26 03:23:41;;;;;;;27.85;15.15;;;;;;;9.14;55.16;103023.47;6278253;22;20070;-62
2022/03/26 03:26:06;;;;;;;30.75;16.50;;;;;;;9.20;54.66;103031.69;6278133;22;20004;-62
2022/03/26 03:28:32;;;;;;;32.42;15.98;;;;;;;9.19;54.49;103028.97;6278048;22;19999;-62
2022/03/26 03:30:57;;;;;;;26.65;14.70;;;;;;;9.22;54.35;103034.44;6278211;22;20003;-62
2022/03/26 03:33:28;;;;;;;29.55;15.52;;;;;;;9.25;53.95;103037.22;6278117;22;20332;-62
2022/03/26 03:35:53;;;;;;;26.50;14.93;;;;;;;9.23;54.16;103033.59;6278005;22;20000;-62
2022/03/26 03:38:19;;;;;;;30.50;15.55;;;;;;;9.27;54.57;103039.09;6278330;22;20051;-62
2022/03/26 03:41:32;;;;;;;32.67;15.57;;;;;;;9.24;53.93;103031.03;6277959;22;20034;-63
2022/03/26 03:43:57;;;;;;;28.70;15.10;;;;;;;9.14;54.87;103034.03;6278364;22;20011;-62
2022/03/26 03:46:22;;;;;;;29.70;15.30;;;;;;;9.09;55.16;103030.25;6277921;22;20332;-62
2022/03/26 03:48:48;;;;;;;30.63;15.40;;;;;;;8.96;55.35;103039.25;6277947;22;20472;-62
2022/03/26 03:51:13;;;;;;;29.13;15.40;;;;;;;8.90;55.36;103025.72;6277870;22;20087;-62
2022/03/26 03:53:39;;;;;;;33.15;15.60;;;;;;;8.87;56.15;103049.31;6277828;22;20004;-62
2022/03/26 03:56:04;;;;;;;31.88;15.70;;;;;;;8.76;56.46;103039.91;6277444;22;20020;-62
2022/03/26 03:58:30;;;;;;;30.00;15.52;;;;;;;8.69;57.09;103048.31;6278048;22;20114;-62
2022/03/26 04:00:55;;;;;;;33.97;16.05;;;;;;;8.65;56.35;103043.69;6277648;22;20380;-62
2022/03/26 04:03:22;;;;;;;28.90;15.20;;;;;;;8.69;55.98;103045.69;6277500;22;20031;-62
2022/03/26 04:05:47;;;;;;;32.53;16.08;;;;;;;8.65;57.08;103039.38;6277811;22;20003;-62
2022/03/26 04:08:13;;;;;;;30.02;15.35;;;;;;;8.70;56.84;103052.78;6277496;22;20015;-62
2022/03/26 04:10:38;;;;;;;28.45;15.75;;;;;;;8.72;56.77;103041.47;6278096;22;20027;-62
2022/03/26 04:13:04;;;;;;;36.00;16.50;;;;;;;8.70;56.67;103048.41;6278016;22;20004;-62
2022/03/26 04:15:29;;;;;;;28.38;15.70;;;;;;;8.70;56.05;103047.53;6277667;22;20152;-62
2022/03/26 04:17:55;;;;;;;36.00;16.17;;;;;;;8.64;57.25;103042.81;6277609;22;20004;-62
2022/03/26 04:20:21;;;;;;;31.85;15.65;;;;;;;8.70;56.54;103040.50;6277696;22;20325;-61
2022/03/26 04:22:47;;;;;;;29.45;14.75;;;;;;;8.79;56.17;103050.66;6277457;22;20003;-63
2022/03/26 04:25:13;;;;;;;32.03;15.52;;;;;;;8.78;56.23;103046.19;6277486;22;20425;-62
2022/03/26 04:27:43;;;;;;;31.25;15.43;;;;;;;8.79;56.51;103042.72;6250436;22;20392;-62
2022/03/26 04:30:11;;;;;;;33.40;15.13;;;;;;;8.83;55.39;103047.34;6277887;22;20065;-62
2022/03/26 04:32:36;;;;;;;35.97;15.50;;;;;;;8.85;55.75;103045.69;6277552;22;20031;-62
2022/03/26 04:35:01;;;;;;;38.05;16.25;;;;;;;8.84;55.69;103050.88;6277407;22;20479;-62
2022/03/26 04:37:28;;;;;;;36.47;15.48;;;;;;;8.83;55.80;103043.81;6277051;22;20058;-63
2022/03/26 04:39:53;;;;;;;28.98;15.65;;;;;;;8.74;56.52;103041.59;6250209;22;20019;-62
2022/03/26 04:42:19;;;;;;;30.15;16.05;;;;;;;8.75;55.83;103041.66;6277377;22;20008;-62
2022/03/26 04:44:44;;;;;;;30.52;16.60;;;;;;;8.77;55.82;103039.09;6277496;22;20417;-62
2022/03/26 04:47:10;;;;;;;28.50;14.80;;;;;;;8.75;56.24;103040.75;6277514;22;20081;-62
2022/03/26 04:49:35;;;;;;;31.45;15.70;;;;;;;8.69;56.37;103038.72;6277300;22;20100;-62
2022/03/26 04:52:00;;;;;;;30.42;15.40;;;;;;;8.70;56.42;103044.88;6250211;22;20004;-63
2022/03/26 04:54:27;;;;;;;30.25;16.58;;;;;;;8.66;56.07;103040.28;6277237;22;20010;-62
2022/03/26 04:56:52;;;;;;;29.45;15.07;;;;;;;8.61;56.25;103041.72;6276445;22;20038;-62
2022/03/26 04:59:18;;;;;;;42.72;15.73;;;;;;;8.58;56.29;103039.84;6277320;22;20485;-63
2022/03/26 05:01:44;;;;;;;29.58;15.80;;;;;;;8.57;56.03;103043.31;6277204;22;20004;-62
2022/03/26 05:04:11;;;;;;;33.08;15.88;;;;;;;8.49;56.45;103042.00;6277230;22;20004;-62
2022/03/26 05:06:37;;;;;;;26.45;15.10;;;;;;;8.46;55.85;103040.09;6277565;22;20007;-62
2022/03/26 05:09:02;;;;;;;31.48;17.75;;;;;;;8.45;56.47;103048.81;6277072;22;20038;-62
2022/03/26 05:11:28;;;;;;;33.78;17.58;;;;;;;8.45;56.12;103042.66;6276537;22;20038;-62
2022/03/26 05:13:54;;;;;;;26.98;15.57;;;;;;;8.45;56.52;103047.91;6277207;22;20027;-62
2022/03/26 05:16:19;;;;;;;29.98;15.77;;;;;;;8.44;57.19;103049.66;6276919;22;20010;-62
2022/03/26 05:18:45;;;;;;;42.70;15.98;;;;;;;8.44;56.41;103048.75;6277120;22;20003;-62
2022/03/26 05:21:10;;;;;;;31.17;15.68;;;;;;;8.36;57.13;103052.66;6276928;22;20007;-62
2022/03/26 05:23:35;;;;;;;37.65;17.30;;;;;;;8.25;57.35;103055.56;6277286;22;20095;-62
2022/03/26 05:26:02;;;;;;;37.90;16.10;;;;;;;8.12;58.35;103050.44;6275095;22;20004;-62
2022/03/26 05:28:28;;;;;;;36.08;15.80;;;;;;;8.02;58.03;103056.03;6275652;22;20078;-62
2022/03/26 05:30:54;;;;;;;31.02;16.20;;;;;;;7.90;58.29;103050.06;6276126;22;20042;-62
2022/03/26 05:33:19;;;;;;;31.88;15.55;;;;;;;7.91;58.84;103062.41;6275737;22;20417;-62
2022/03/26 05:35:45;;;;;;;38.47;15.55;;;;;;;7.96;58.38;103063.56;6276122;22;20425;-62
2022/03/26 05:38:10;;;;;;;27.38;15.20;;;;;;;7.99;58.16;103069.00;6275700;22;20003;-62
2022/03/26 05:40:36;;;;;;;32.05;16.15;;;;;;;7.95;58.69;103067.00;6275765;22;20007;-62
2022/03/26 05:43:01;;;;;;;32.33;15.77;;;;;;;7.97;59.09;103071.56;6248469;22;20010;-62
2022/03/26 05:45:27;;;;;;;34.90;16.27;;;;;;;7.98;58.75;103081.25;6276018;22;20004;-62
2022/03/26 05:47:57;;;;;;;30.10;15.77;;;;;;;7.91;59.37;103083.44;6275813;22;20033;-62
2022/03/26 05:50:22;;;;;;;32.08;16.63;;;;;;;7.87;60.02;103082.38;6276021;22;20083;-62
2022/03/26 05:52:48;;;;;;;34.97;15.93;;;;;;;7.84;60.19;103089.22;6275632;22;20379;-61
2022/03/26 05:55:16;;;;;;;33.05;15.68;;;;;;;7.84;59.48;103084.84;6275595;22;20325;-61
2022/03/26 05:57:42;;;;;;;32.80;16.10;;;;;;;7.81;60.37;103089.91;6275459;22;20103;-62
2022/03/26 06:00:10;;;;;;;31.42;15.25;;;;;;;7.85;60.57;103091.00;6275478;22;20354;-62
2022/03/26 06:02:36;;;;;;;35.38;16.70;;;;;;;7.94;60.19;103092.44;6275653;22;20007;-62
2022/03/26 06:05:03;;;;;;;38.92;17.30;;;;;;;8.04;59.88;103097.41;6248516;22;20003;-62
2022/03/26 06:07:28;;;;;;;37.50;16.67;;;;;;;8.16;59.47;103101.56;6275832;22;20496;-64
2022/03/26 06:09:54;;;;;;;32.65;16.25;;;;;;;8.27;59.67;103098.72;6275569;22;20035;-62
2022/03/26 06:12:19;;;;;;;32.83;16.10;;;;;;;8.46;58.65;103098.03;6275564;22;20007;-62
2022/03/26 06:14:45;;;;;;;34.42;17.33;;;;;;;8.66;58.21;103092.97;6275628;22;20069;-62
2022/03/26 06:17:11;;;;;;;32.95;16.15;;;;;;;8.89;58.02;103096.84;6275545;22;20004;-62
2022/03/26 06:19:38;;;;;;;38.00;17.52;;;;;;;9.03;57.28;103099.38;6275774;22;20026;-62
2022/03/26 06:22:04;;;;;;;39.15;17.33;;;;;;;9.22;57.71;103101.28;6275217;22;20048;-62
2022/03/26 06:24:30;;;;;;;32.92;16.02;;;;;;;9.33;57.16;103112.38;6275959;22;20008;-62
2022/03/26 06:26:57;;;;;;;36.88;17.52;;;;;;;9.45;56.85;103110.38;6275168;22;20003;-62
2022/03/26 06:29:22;;;;;;;33.92;17.80;;;;;;;9.57;56.42;103104.84;6275813;22;20028;-62
2022/03/26 06:31:48;;;;;;;45.50;22.13;;;;;;;9.70;56.61;103106.38;6275325;22;20326;-61
2022/03/26 06:34:13;;;;;;;49.63;22.98;;;;;;;9.78;55.84;103110.28;6275652;22;20011;-61
2022/03/26 06:36:39;;;;;;;51.55;21.85;;;;;;;9.99;56.27;103118.38;6275381;22;20004;-61
2022/03/26 06:39:06;;;;;;;33.00;18.42;;;;;;;10.00;56.70;103117.56;6276002;22;20007;-62
2022/03/26 06:41:32;;;;;;;35.20;18.42;;;;;;;10.06;57.12;103120.47;6275045;22;19999;-61
2022/03/26 06:43:58;;;;;;;34.85;17.33;;;;;;;10.27;55.98;103124.19;6275498;22;19999;-61
2022/03/26 06:46:23;;;;;;;39.47;17.30;;;;;;;10.41;55.94;103124.00;6248179;22;20012;-62
2022/03/26 06:48:49;;;;;;;31.08;16.65;;;;;;;10.49;55.01;103122.59;6275371;22;20011;-61
2022/03/26 06:51:14;;;;;;;39.95;17.50;;;;;;;10.63;54.24;103120.63;6275603;22;20419;-62
2022/03/26 06:53:40;;;;;;;36.60;18.30;;;;;;;10.74;54.11;103119.38;6275384;22;20007;-61
2022/03/26 06:56:06;;;;;;;37.53;16.60;;;;;;;10.95;54.23;103116.81;6275264;22;20015;-62
2022/03/26 06:58:33;;;;;;;34.10;17.60;;;;;;;10.99;53.69;103111.72;6275182;22;20000;-62
2022/03/26 07:00:59;;;;;;;42.88;17.45;;;;;;;11.20;53.38;103116.19;6275626;22;20078;-62
2022/03/26 07:03:25;;;;;;;42.30;18.08;;;;;;;11.46;53.79;103123.53;6275779;22;20039;-62
2022/03/26 07:05:51;;;;;;;35.47;17.30;;;;;;;11.62;52.00;103122.44;6275901;22;20011;-62
2022/03/26 07:08:16;;;;;;;38.13;18.27;;;;;;;11.87;52.16;103131.47;6275540;22;20337;-62
2022/03/26 07:10:45;;;;;;;39.45;18.48;;;;;;;12.09;51.53;103131.53;6275564;22;20000;-61
2022/03/26 07:13:14;;;;;;;41.75;17.73;;;;;;;12.27;50.71;103126.97;6275317;22;20008;-62
2022/03/26 07:15:41;;;;;;;40.20;17.75;;;;;;;12.43;49.47;103124.94;6275307;22;20010;-62
2022/03/26 07:18:06;;;;;;;38.53;18.90;;;;;;;12.62;49.18;103127.44;6275403;22;20330;-62
2022/03/26 07:20:32;;;;;;;38.28;18.10;;;;;;;12.76;48.58;103133.28;6275331;22;20004;-62
2022/03/26 07:22:57;;;;;;;38.42;18.83;;;;;;;12.99;47.64;103129.78;6275782;22;20003;-62
2022/03/26 07:25:23;;;;;;;34.45;18.42;;;;;;;13.18;47.98;103130.44;6275725;22;20023;-62
2022/03/26 07:27:48;;;;;;;36.97;19.08;;;;;;;13.36;46.84;103131.16;6275631;22;20492;-62
2022/03/26 07:30:14;;;;;;;39.15;19.10;;;;;;;13.55;46.73;103130.06;6275380;22;19999;-62
2022/03/26 07:32:40;;;;;;;36.80;19.30;;;;;;;13.64;46.83;103130.38;6275665;22;20015;-62
2022/03/26 07:35:08;;;;;;;36.75;18.92;;;;;;;13.87;46.25;103131.16;6276346;22;20015;-62
2022/03/26 07:37:34;;;;;;;39.67;19.33;;;;;;;14.07;45.60;103139.78;6277039;22;20061;-62
2022/03/26 07:40:00;;;;;;;39.38;18.83;;;;;;;14.26;45.26;103130.66;6277251;22;20364;-62
2022/03/26 07:42:26;;;;;;;34.85;18.80;;;;;;;14.51;44.62;103135.03;6276931;22;20035;-62
2022/03/26 07:44:53;;;;;;;42.08;19.35;;;;;;;14.65;44.37;103141.69;6277255;22;20083;-62
2022/03/26 07:47:18;;;;;;;37.17;19.70;;;;;;;14.92;43.87;103130.97;6276795;22;20007;-62
2022/03/26 07:49:44;;;;;;;44.50;19.25;;;;;;;15.09;43.24;103138.56;6250191;22;20000;-62
2022/03/26 07:52:10;;;;;;;38.65;19.50;;;;;;;15.34;43.08;103141.06;6276698;22;20443;-62
2022/03/26 07:54:35;;;;;;;39.90;19.48;;;;;;;15.60;42.27;103138.19;6277190;22;20082;-62
2022/03/26 07:57:02;;;;;;;39.08;19.55;;;;;;;15.80;41.41;103142.28;6276179;22;20463;-63
2022/03/26 07:59:28;;;;;;;37.38;19.38;;;;;;;16.01;40.70;103139.28;6249800;22;20016;-63
2022/03/26 08:01:53;;;;;;;39.33;19.80;;;;;;;16.19;40.86;103145.09;6277076;22;20004;-62
2022/03/26 08:04:18;;;;;;;40.22;19.45;;;;;;;16.42;40.48;103134.06;6276890;22;20003;-62
2022/03/26 08:06:44;;;;;;;37.63;19.65;;;;;;;16.68;40.21;103140.88;6277081;22;20011;-62
2022/03/26 08:09:09;;;;;;;33.42;19.73;;;;;;;16.86;39.31;103140.41;6277079;22;20003;-62
2022/03/26 08:11:34;;;;;;;47.20;20.80;;;;;;;17.16;39.04;103142.81;6277421;22;20004;-62
2022/03/26 08:14:09;;;;;;;36.72;19.85;;;;;;;17.15;39.74;103138.34;6276750;22;20398;-62
2022/03/26 08:16:34;;;;;;;36.22;19.63;;;;;;;17.44;38.73;103138.94;6276739;22;20003;-63
2022/03/26 08:19:00;;;;;;;40.50;19.40;;;;;;;17.72;37.96;103147.44;6276831;22;20004;-62
2022/03/26 08:21:25;;;;;;;35.40;19.50;;;;;;;17.90;37.62;103150.50;6276550;22;19999;-62
2022/03/26 08:23:53;;;;;;;39.42;19.98;;;;;;;18.06;37.31;103143.63;6276594;22;20355;-61
2022/03/26 08:26:26;;;;;;;39.40;20.50;;;;;;;18.26;36.92;103154.66;6276746;22;20031;-63
2022/03/26 08:28:54;;;;;;;40.58;20.55;;;;;;;18.30;37.05;103150.25;6277119;22;20004;-63
2022/03/26 08:31:21;;;;;;;40.25;20.23;;;;;;;18.42;36.97;103155.81;6276903;22;20141;-62
2022/03/26 08:33:48;;;;;;;38.60;20.05;;;;;;;18.46;37.04;103158.53;6276937;22;20321;-62
2022/03/26 08:36:16;;;;;;;40.55;19.60;;;;;;;18.72;36.14;103161.63;6276390;22;20033;-62
2022/03/26 08:38:46;;;;;;;37.75;20.08;;;;;;;18.83;36.28;103152.81;6277656;22;20003;-62
2022/03/26 08:41:15;;;;;;;41.40;19.85;;;;;;;18.92;35.99;103163.66;6275115;22;20425;-63
2022/03/26 08:43:41;;;;;;;36.22;19.25;;;;;;;19.16;35.28;103165.75;6278120;22;20010;-63
2022/03/26 08:46:06;;;;;;;37.00;18.65;;;;;;;19.33;34.32;103161.50;6277057;22;20350;-62
2022/03/26 08:48:34;;;;;;;34.95;18.52;;;;;;;19.48;34.20;103155.41;6277109;22;20440;-63
2022/03/26 08:51:00;;;;;;;35.35;18.45;;;;;;;19.59;33.81;103161.78;6276439;22;20011;-62
2022/03/26 08:53:26;;;;;;;32.88;18.88;;;;;;;19.80;34.17;103162.91;6276267;22;20010;-63
2022/03/26 08:55:52;;;;;;;38.70;18.08;;;;;;;20.05;33.44;103164.03;6276382;22;20031;-63
2022/03/26 08:58:18;;;;;;;38.22;18.13;;;;;;;20.18;33.24;103160.56;6275739;22;20045;-63
2022/03/26 09:00:47;;;;;;;34.33;18.35;;;;;;;20.21;33.46;103158.81;6249112;22;20008;-63
2022/03/26 09:03:15;;;;;;;31.90;17.30;;;;;;;20.43;32.96;103164.34;6276097;22;20007;-62
2022/03/26 09:05:40;;;;;;;33.45;18.10;;;;;;;20.55;32.76;103167.13;6276644;22;20010;-62
2022/03/26 09:08:06;;;;;;;34.83;18.42;;;;;;;20.91;33.24;103161.06;6276285;22;20306;-62
2022/03/26 09:10:32;;;;;;;37.33;19.30;;;;;;;20.98;32.91;103164.66;6276137;22;20031;-63
2022/03/26 09:12:57;;;;;;;40.65;19.73;;;;;;;21.08;32.57;103163.81;6276445;22;20010;-63
2022/03/26 09:15:23;;;;;;;35.22;20.33;;;;;;;21.15;32.05;103164.72;6276635;22;20333;-63
2022/03/26 09:17:48;;;;;;;41.15;20.65;;;;;;;21.27;31.40;103167.47;6275815;22;20109;-62
2022/03/26 09:20:19;;;;;;;34.42;18.67;;;;;;;21.43;31.55;103165.75;6276696;22;20064;-62
2022/03/26 09:22:44;;;;;;;38.10;19.50;;;;;;;21.33;31.44;103166.66;6276319;22;20402;-63
2022/03/26 09:25:10;;;;;;;45.75;23.30;;;;;;;21.62;30.80;103170.28;6276319;22;20000;-63
2022/03/26 09:27:35;;;;;;;41.03;20.10;;;;;;;21.77;30.27;103176.59;6276342;22;20007;-63
2022/03/26 09:30:01;;;;;;;37.63;18.15;;;;;;;22.02;30.27;103175.72;6276083;22;20037;-62
2022/03/26 09:32:26;;;;;;;31.63;16.85;;;;;;;22.18;29.87;103173.94;6276301;22;20010;-63
2022/03/26 09:34:52;;;;;;;42.80;19.05;;;;;;;22.41;29.91;103168.53;6275932;22;20007;-63
2022/03/26 09:37:17;;;;;;;40.20;18.63;;;;;;;22.38;29.46;103173.94;6276000;22;20000;-63
2022/03/26 09:39:43;;;;;;;41.35;18.38;;;;;;;22.52;28.55;103160.44;6248714;22;20000;-64
2022/03/26 09:42:09;;;;;;;35.38;18.10;;;;;;;22.58;29.05;103169.41;6275933;22;20000;-63
2022/03/26 09:44:36;;;;;;;30.95;16.90;;;;;;;22.65;28.43;103162.19;6276213;22;20004;-63
2022/03/26 09:47:05;;;;;;;41.30;17.90;;;;;;;22.83;28.80;103164.84;6276183;22;20046;-63
2022/03/26 09:49:31;;;;;;;34.70;17.27;;;;;;;22.86;28.43;103163.94;6275883;22;20000;-63
2022/03/26 09:51:57;;;;;;;34.20;17.38;;;;;;;23.11;28.23;103160.25;6275440;22;20004;-63
2022/03/26 09:54:23;;;;;;;31.27;16.55;;;;;;;23.28;27.62;103162.88;6275935;22;20393;-62
2022/03/26 09:56:50;;;;;;;30.80;17.10;;;;;;;23.34;28.04;103161.94;6274952;22;20012;-63
2022/03/26 09:59:20;;;;;;;28.92;17.38;;;;;;;23.63;27.06;103162.66;6275921;22;20057;-63
2022/03/26 10:01:46;;;;;;;33.10;17.38;;;;;;;23.47;27.45;103161.00;6275778;22;20362;-63
2022/03/26 10:04:14;;;;;;;31.65;17.45;;;;;;;23.62;27.00;103151.88;6276001;22;20083;-62
2022/03/26 10:06:57;;;;;;;35.92;18.45;;;;;;;23.79;27.72;103154.50;6248540;22;20087;-62
2022/03/26 10:09:37;;;;;;;44.45;28.17;;;;;;;23.95;26.61;103164.28;6275689;22;20011;-63
2022/03/26 10:12:07;;;;;;;33.10;18.08;;;;;;;24.00;26.09;103157.03;6275713;22;20008;-62
2022/03/26 10:14:52;;;;;;;30.98;16.92;;;;;;;24.19;26.48;103152.34;6276067;22;20071;-62
2022/03/26 10:17:25;;;;;;;30.70;16.10;;;;;;;24.02;25.95;103151.59;6275757;22;20428;-63
2022/03/26 10:19:59;;;;;;;31.90;18.08;;;;;;;24.07;26.17;103152.44;6275525;22;20314;-64
2022/03/26 10:22:30;;;;;;;37.08;17.02;;;;;;;24.32;25.83;103153.13;6275764;22;20014;-63
2022/03/26 10:25:20;;;;;;;31.88;16.35;;;;;;;24.37;25.66;103151.28;6275167;22;20026;-63
2022/03/26 10:27:57;;;;;;;28.75;16.05;;;;;;;24.30;26.24;103153.16;6126969;23;20143;-62
2022/03/26 10:33:32;;;;;;;27.48;14.23;;;;;;;24.68;24.10;103152.78;6152076;23;20021;-63
2022/03/26 10:36:02;;;;;;;29.40;13.35;;;;;;;24.87;22.84;103148.03;6152348;23;20037;-63
2022/03/26 10:38:32;;;;;;;30.98;13.80;;;;;;;24.82;24.05;103143.59;6152296;23;20009;-63
2022/03/26 10:41:00;;;;;;;28.98;13.85;;;;;;;24.90;23.17;103149.81;6151979;23;20009;-64
2022/03/26 10:43:26;;;;;;;30.38;15.07;;;;;;;25.07;22.76;103138.78;6152133;23;20017;-63
2022/03/26 10:45:55;;;;;;;33.35;20.48;;;;;;;25.06;22.52;103137.88;6152102;23;20025;-64
2022/03/26 10:48:28;;;;;;;33.60;18.92;;;;;;;25.05;23.21;103133.34;6152168;23;20033;-64
2022/03/26 10:50:56;;;;;;;39.75;22.75;;;;;;;25.30;22.87;103138.47;6152034;23;20010;-64
2022/03/26 10:53:22;;;;;;;23.33;13.77;;;;;;;25.44;22.26;103139.19;6152217;23;20435;-64
2022/03/26 10:55:48;;;;;;;28.33;13.85;;;;;;;25.34;23.49;103135.69;6152300;23;20009;-65
2022/03/26 10:58:14;;;;;;;32.22;14.75;;;;;;;25.25;22.57;103133.13;6127208;23;20332;-65
2022/03/26 11:00:42;;;;;;;25.75;13.85;;;;;;;24.99;22.66;103133.47;6152242;23;20093;-65
2022/03/26 11:03:08;;;;;;;28.80;14.73;;;;;;;25.08;23.27;103135.13;6182002;23;20006;-65
2022/03/26 11:05:34;;;;;;;26.35;11.55;;;;;;;25.27;22.97;103128.59;6235162;23;20008;-65
2022/03/26 11:08:01;;;;;;;24.67;11.85;;;;;;;25.63;23.02;103127.13;6244949;23;20333;-63
2022/03/26 11:10:29;;;;;;;24.98;13.05;;;;;;;25.50;23.25;103128.25;6246095;23;20007;-65
2022/03/26 11:12:58;;;;;;;24.30;14.30;;;;;;;25.66;23.20;103132.53;6246722;23;20007;-65